Time;durP1;ratioP1;P1;durP2;ratioP2;P2;SDS_P1;SDS_P2;PMS_P1;PMS_P2;Temp;Humidity;BMP_temperature;BMP_pressure;BME280_temperature;BME280_humidity;BME280_pressure;Samples;Min_cycle;Max_cycle;Signal;HPM_P1;HPM_P2
2021/06/07 00:01:00;;;;;;;0.15;0.15;;;18.40;63.20;;;;;;5113891;28;20127;-67
2021/06/07 00:03:27;;;;;;;0.17;0.17;;;18.40;63.20;;;;;;5113791;28;20515;-67
2021/06/07 00:05:53;;;;;;;0.20;0.20;;;18.30;63.40;;;;;;5113907;28;20134;-67
2021/06/07 00:08:21;;;;;;;0.10;0.10;;;18.30;63.30;;;;;;5113510;28;20052;-67
2021/06/07 00:10:48;;;;;;;0.22;0.15;;;18.30;63.40;;;;;;5113481;28;20044;-67
2021/06/07 00:13:15;;;;;;;0.20;0.20;;;18.30;63.60;;;;;;5116378;27;20044;-67
2021/06/07 00:15:42;;;;;;;0.10;0.10;;;18.30;63.70;;;;;;5114722;27;20051;-67
2021/06/07 00:18:09;;;;;;;0.10;0.10;;;18.20;63.70;;;;;;5113152;28;20055;-67
2021/06/07 00:20:39;;;;;;;0.10;0.10;;;18.20;63.70;;;;;;5112894;28;20126;-67
2021/06/07 00:23:09;;;;;;;0.13;0.10;;;18.20;63.90;;;;;;5113777;28;20052;-67
2021/06/07 00:25:36;;;;;;;0.10;0.10;;;18.20;64.00;;;;;;5113126;28;20079;-67
2021/06/07 00:28:04;;;;;;;0.22;0.22;;;18.20;64.00;;;;;;5122174;27;20086;-67
2021/06/07 00:30:31;;;;;;;0.15;0.15;;;18.20;64.10;;;;;;5105867;27;20119;-67
2021/06/07 00:32:58;;;;;;;0.22;0.10;;;18.20;64.00;;;;;;5113109;28;20529;-67
2021/06/07 00:35:26;;;;;;;0.20;0.20;;;18.20;64.10;;;;;;5112983;28;20047;-67
2021/06/07 00:37:53;;;;;;;0.20;0.20;;;18.20;64.10;;;;;;5113043;28;20131;-67
2021/06/07 00:40:31;;;;;;;0.03;0.03;;;18.20;64.00;;;;;;5717724;22;20048;31
2021/06/07 00:42:58;;;;;;;0.10;0.10;;;18.20;64.00;;;;;;5030132;28;20046;-64
2021/06/07 00:45:31;;;;;;;0.10;0.10;;;18.20;64.10;;;;;;5029963;28;20843;-64
2021/06/07 00:47:59;;;;;;;0.20;0.20;;;18.10;64.00;;;;;;5033036;28;20041;-64
2021/06/07 00:50:40;;;;;;;0.10;0.10;;;18.10;64.10;;;;;;5038145;28;20051;-64
2021/06/07 00:53:11;;;;;;;0.20;0.10;;;18.10;64.10;;;;;;5053552;28;20045;-64
2021/06/07 00:55:38;;;;;;;;;;;18.10;64.10;;;;;;5053168;28;20044;-64
2021/06/07 00:58:06;;;;;;;0.28;0.20;;;18.10;64.40;;;;;;5024631;28;20396;-64
2021/06/07 01:00:35;;;;;;;0.10;0.10;;;18.10;64.60;;;;;;5036652;28;20141;-64
2021/06/07 01:03:04;;;;;;;0.20;0.20;;;18.00;65.80;;;;;;5053220;28;20057;-64
2021/06/07 01:05:32;;;;;;;0.10;0.10;;;18.00;65.00;;;;;;5052833;28;20060;-64
2021/06/07 01:07:59;;;;;;;0.10;0.10;;;18.00;65.30;;;;;;5052664;28;20517;-64
2021/06/07 01:10:28;;;;;;;0.20;0.20;;;18.00;65.20;;;;;;5052322;28;20045;-64
2021/06/07 01:12:55;;;;;;;0.10;0.10;;;18.00;65.20;;;;;;5052710;28;20049;-64
2021/06/07 01:15:22;;;;;;;0.03;0.03;;;17.90;65.10;;;;;;5040502;28;20485;-64
2021/06/07 01:17:48;;;;;;;0.10;0.10;;;17.90;65.20;;;;;;5052032;28;20056;-64
2021/06/07 01:20:18;;;;;;;0.20;0.20;;;17.90;65.40;;;;;;5053049;28;20049;-64
2021/06/07 01:22:45;;;;;;;0.10;0.10;;;17.90;65.50;;;;;;5052635;28;20067;-64
2021/06/07 01:25:22;;;;;;;0.13;0.13;;;17.90;65.60;;;;;;5052577;28;20044;-64
2021/06/07 01:27:50;;;;;;;0.20;0.10;;;17.90;66.00;;;;;;5052500;28;20076;-63
2021/06/07 01:30:19;;;;;;;0.20;0.20;;;17.90;65.90;;;;;;5052468;28;20088;-63
2021/06/07 01:32:46;;;;;;;0.13;0.13;;;17.80;65.80;;;;;;5051288;28;20126;-64
2021/06/07 01:35:13;;;;;;;0.25;0.13;;;17.80;66.20;;;;;;5052438;28;20049;-64
2021/06/07 01:37:41;;;;;;;0.13;0.13;;;17.80;66.50;;;;;;5052380;28;20408;-64
2021/06/07 01:40:11;;;;;;;0.43;0.30;;;17.80;66.30;;;;;;5052105;28;20064;-64
2021/06/07 01:42:37;;;;;;;0.22;0.20;;;17.70;66.70;;;;;;5051060;28;20103;-63
2021/06/07 01:45:07;;;;;;;0.20;0.20;;;17.70;66.70;;;;;;5052027;28;20090;-64
2021/06/07 01:47:33;;;;;;;0.10;0.10;;;17.70;67.10;;;;;;5051933;28;20140;-64
2021/06/07 01:50:00;;;;;;;0.40;0.40;;;17.70;66.90;;;;;;5039030;28;20122;-64
2021/06/07 01:52:27;;;;;;;0.30;0.20;;;17.70;67.00;;;;;;5052094;28;20491;-64
2021/06/07 01:54:53;;;;;;;0.20;0.20;;;17.70;67.00;;;;;;5052071;28;20055;-64
2021/06/07 01:57:20;;;;;;;0.15;0.15;;;17.70;67.20;;;;;;5052010;28;20128;-64
2021/06/07 01:59:46;;;;;;;0.20;0.20;;;17.70;67.40;;;;;;5052258;28;20144;-64
2021/06/07 02:02:12;;;;;;;0.85;0.30;;;17.70;67.40;;;;;;5051999;28;20124;-64
2021/06/07 02:04:38;;;;;;;0.10;0.10;;;17.60;68.60;;;;;;5052199;28;20175;-64
2021/06/07 02:07:05;;;;;;;0.17;0.17;;;17.60;67.70;;;;;;5052276;28;20103;-64
2021/06/07 02:09:31;;;;;;;0.10;0.10;;;17.60;68.10;;;;;;5051526;28;20400;-64
2021/06/07 02:11:57;;;;;;;0.13;0.13;;;17.60;67.90;;;;;;5051808;28;20487;-64
2021/06/07 02:14:24;;;;;;;0.10;0.10;;;17.50;68.00;;;;;;5052364;28;20499;-64
2021/06/07 02:16:50;;;;;;;0.25;0.25;;;17.50;68.40;;;;;;5044998;28;20424;-64
2021/06/07 02:19:16;;;;;;;0.20;0.20;;;17.50;68.40;;;;;;5038075;28;20132;-64
2021/06/07 02:21:43;;;;;;;0.40;0.22;;;17.40;68.50;;;;;;5052201;28;20132;-64
2021/06/07 02:24:10;;;;;;;0.30;0.30;;;17.40;68.50;;;;;;5051463;28;20507;-64
2021/06/07 02:26:37;;;;;;;0.20;0.17;;;17.40;68.40;;;;;;5051955;28;20132;-64
2021/06/07 02:29:11;;;;;;;0.10;0.10;;;17.40;68.40;;;;;;5051697;28;20477;-64
2021/06/07 02:31:38;;;;;;;0.13;0.13;;;17.30;68.40;;;;;;5051837;28;20084;-64
2021/06/07 02:34:07;;;;;;;0.10;0.10;;;17.30;68.50;;;;;;5050939;28;20045;-64
2021/06/07 02:36:37;;;;;;;0.13;0.13;;;17.40;68.60;;;;;;5052098;28;20187;-64
2021/06/07 02:39:08;;;;;;;0.10;0.10;;;17.30;68.60;;;;;;5051635;28;20128;-64
2021/06/07 02:41:34;;;;;;;0.22;0.22;;;17.30;68.80;;;;;;5052237;28;20135;-64
2021/06/07 02:44:01;;;;;;;0.30;0.10;;;17.30;68.90;;;;;;5046279;28;20058;-64
2021/06/07 02:46:27;;;;;;;0.17;0.17;;;17.30;68.90;;;;;;5054901;28;20379;-64
2021/06/07 02:48:54;;;;;;;0.20;0.20;;;17.20;68.90;;;;;;5048405;28;20049;-64
2021/06/07 02:51:20;;;;;;;0.30;0.20;;;17.30;68.90;;;;;;5049101;28;20171;-64
2021/06/07 02:53:49;;;;;;;0.20;0.20;;;17.20;69.00;;;;;;5055265;28;20500;-64
2021/06/07 02:56:16;;;;;;;0.20;0.20;;;17.20;69.00;;;;;;5054943;28;20124;-64
2021/06/07 02:58:42;;;;;;;0.43;0.40;;;17.20;69.20;;;;;;5055142;28;20468;-64
2021/06/07 03:01:11;;;;;;;0.05;0.05;;;17.20;69.40;;;;;;5055105;28;20091;-64
2021/06/07 03:03:38;;;;;;;0.32;0.32;;;17.10;69.30;;;;;;5055156;28;20052;-64
2021/06/07 03:06:05;;;;;;;0.10;0.10;;;17.10;69.50;;;;;;5055199;28;20561;-69
2021/06/07 03:08:33;;;;;;;0.10;0.10;;;17.10;69.70;;;;;;5054769;28;20041;-69
2021/06/07 03:11:04;;;;;;;0.20;0.20;;;17.10;70.00;;;;;;5055422;28;20117;-70
2021/06/07 03:13:30;;;;;;;0.20;0.20;;;17.10;70.00;;;;;;5054550;28;20136;-69
2021/06/07 03:15:58;;;;;;;0.17;0.17;;;17.10;70.10;;;;;;5054959;28;20435;-69
2021/06/07 03:18:25;;;;;;;0.20;0.20;;;17.10;70.10;;;;;;5055083;28;20059;-69
2021/06/07 03:20:53;;;;;;;0.20;0.20;;;17.10;70.40;;;;;;5053967;28;20056;-69
2021/06/07 03:23:24;;;;;;;0.35;0.22;;;17.10;70.50;;;;;;5054968;28;20128;-69
2021/06/07 03:25:51;;;;;;;0.10;0.10;;;17.10;70.40;;;;;;5055272;28;20255;-69
2021/06/07 03:28:20;;;;;;;0.10;0.10;;;17.10;70.40;;;;;;5054900;28;20057;-69
2021/06/07 03:30:49;;;;;;;0.30;0.30;;;17.10;70.20;;;;;;5054639;28;20167;-69
2021/06/07 03:33:15;;;;;;;0.30;0.30;;;17.10;70.10;;;;;;5054565;28;20045;-69
2021/06/07 03:35:46;;;;;;;0.20;0.20;;;17.10;70.10;;;;;;5054563;28;20092;-69
2021/06/07 03:38:14;;;;;;;0.20;0.20;;;17.10;70.20;;;;;;5054589;28;20053;-69
2021/06/07 03:40:47;;;;;;;0.30;0.30;;;17.10;70.20;;;;;;5053915;28;20056;-69
2021/06/07 03:43:14;;;;;;;0.40;0.30;;;17.00;70.50;;;;;;5051881;28;20040;-69
2021/06/07 03:45:41;;;;;;;0.32;0.22;;;17.00;70.70;;;;;;5047909;28;20045;-69
2021/06/07 03:48:08;;;;;;;0.30;0.30;;;16.90;70.80;;;;;;5053443;28;20052;-69
2021/06/07 03:50:36;;;;;;;0.20;0.20;;;16.90;70.70;;;;;;5041319;28;20072;-69
2021/06/07 03:53:04;;;;;;;0.15;0.13;;;17.00;70.70;;;;;;5053309;28;20049;-70
2021/06/07 03:55:31;;;;;;;0.25;0.25;;;17.00;70.70;;;;;;5053908;28;20574;-70
2021/06/07 03:57:58;;;;;;;0.10;0.10;;;17.00;70.90;;;;;;5054265;28;20045;-70
2021/06/07 04:00:29;;;;;;;0.30;0.20;;;17.00;70.90;;;;;;5054054;28;20044;-70
2021/06/07 04:02:56;;;;;;;0.13;0.13;;;17.00;71.10;;;;;;5054362;28;20063;-70
2021/06/07 04:05:23;;;;;;;0.20;0.20;;;17.00;71.10;;;;;;5053936;28;20543;-70
2021/06/07 04:07:50;;;;;;;0.25;0.22;;;17.00;71.20;;;;;;5054043;28;20170;-70
2021/06/07 04:10:19;;;;;;;0.10;0.10;;;17.00;71.40;;;;;;5053982;28;20056;-70
2021/06/07 04:12:47;;;;;;;0.20;0.20;;;17.00;71.50;;;;;;5054038;28;20388;-70
2021/06/07 04:15:16;;;;;;;0.30;0.20;;;17.10;71.70;;;;;;5053485;28;20128;-70
2021/06/07 04:17:44;;;;;;;0.10;0.10;;;17.10;71.70;;;;;;5054130;28;20095;-70
2021/06/07 04:20:13;;;;;;;0.50;0.20;;;17.10;71.70;;;;;;5053487;28;20056;-70
2021/06/07 04:22:42;;;;;;;0.10;0.10;;;17.10;71.80;;;;;;5053523;28;20540;-70
2021/06/07 04:25:09;;;;;;;0.10;0.10;;;17.10;71.80;;;;;;5053973;28;20128;-70
2021/06/07 04:27:38;;;;;;;0.20;0.20;;;17.10;71.80;;;;;;5053453;28;20131;-70
2021/06/07 04:30:13;;;;;;;0.10;0.10;;;17.10;71.90;;;;;;5053521;28;20049;-70
2021/06/07 04:32:40;;;;;;;0.30;0.13;;;17.10;72.00;;;;;;5053377;28;20045;-70
2021/06/07 04:35:08;;;;;;;0.20;0.20;;;17.10;72.10;;;;;;5053765;28;20130;-70
2021/06/07 04:37:50;;;;;;;0.00;0.00;;;17.10;72.20;;;;;;5053321;28;20045;-70
2021/06/07 04:40:21;;;;;;;0.10;0.10;;;17.20;72.30;;;;;;5052921;28;20107;-70
2021/06/07 04:42:47;;;;;;;0.13;0.13;;;17.20;72.50;;;;;;5052988;28;20048;-65
2021/06/07 04:45:15;;;;;;;0.00;0.00;;;17.20;72.70;;;;;;5035045;28;20064;-65
2021/06/07 04:47:41;;;;;;;0.10;0.10;;;17.20;72.70;;;;;;5052235;28;20104;-65
2021/06/07 04:50:11;;;;;;;0.10;0.10;;;17.20;72.70;;;;;;5039570;28;20133;-65
2021/06/07 04:55:28;;;;;;;0.10;0.10;;;17.30;73.00;;;;;;5052679;28;20175;-65
2021/06/07 04:57:56;;;;;;;0.10;0.10;;;17.30;73.20;;;;;;5053005;28;20105;-65
2021/06/07 05:00:24;;;;;;;0.10;0.10;;;17.30;73.10;;;;;;5047032;28;20051;-64
2021/06/07 05:02:51;;;;;;;0.05;0.05;;;17.30;73.00;;;;;;5028340;28;20389;-65
2021/06/07 05:05:19;;;;;;;0.10;0.10;;;17.30;73.00;;;;;;5035477;28;20060;-65
2021/06/07 05:07:45;;;;;;;0.00;0.00;;;17.40;73.20;;;;;;5031316;28;20592;-65
2021/06/07 05:10:13;;;;;;;0.45;0.10;;;17.40;73.00;;;;;;5040399;28;20045;-65
2021/06/07 05:12:39;;;;;;;0.00;0.00;;;17.40;73.20;;;;;;5013290;28;20099;-65
2021/06/07 05:15:07;;;;;;;0.20;0.10;;;17.50;73.10;;;;;;5019511;28;20170;-65
2021/06/07 05:17:34;;;;;;;0.10;0.10;;;17.50;73.00;;;;;;5015604;28;20112;-64
2021/06/07 05:20:01;;;;;;;0.00;0.00;;;17.60;73.00;;;;;;5029238;28;20053;-64
2021/06/07 05:22:27;;;;;;;0.25;0.15;;;17.60;73.00;;;;;;5038092;28;20053;-65
2021/06/07 05:24:54;;;;;;;0.10;0.10;;;17.60;73.10;;;;;;5038431;28;20041;-65
2021/06/07 05:27:20;;;;;;;0.10;0.10;;;17.60;72.90;;;;;;5023836;28;20052;-65
2021/06/07 05:29:47;;;;;;;0.08;0.08;;;17.70;72.80;;;;;;5041219;28;20437;-65
2021/06/07 05:32:13;;;;;;;0.10;0.10;;;17.70;72.80;;;;;;5029565;28;20398;-65
2021/06/07 05:34:39;;;;;;;0.10;0.10;;;17.70;72.80;;;;;;5037334;28;20056;-68
2021/06/07 05:37:06;;;;;;;0.90;0.20;;;17.70;72.80;;;;;;5012937;28;20125;-66
2021/06/07 05:39:32;;;;;;;0.00;0.00;;;17.70;73.10;;;;;;5020107;28;20136;-65
2021/06/07 05:41:59;;;;;;;0.17;0.17;;;17.70;73.00;;;;;;5035904;28;20144;-65
2021/06/07 05:44:25;;;;;;;0.00;0.00;;;17.80;72.90;;;;;;5038523;28;20045;-65
2021/06/07 05:46:52;;;;;;;0.15;0.10;;;17.80;72.80;;;;;;5051075;28;20057;-65
2021/06/07 05:49:19;;;;;;;0.20;0.10;;;17.80;72.70;;;;;;5028324;28;20132;-66
2021/06/07 05:51:45;;;;;;;0.10;0.10;;;17.90;72.80;;;;;;5014470;28;20045;-66
2021/06/07 05:54:12;;;;;;;0.10;0.10;;;17.90;72.90;;;;;;5012167;28;20136;-66
2021/06/07 05:56:39;;;;;;;0.10;0.10;;;17.90;72.80;;;;;;5014668;28;20566;-66
2021/06/07 05:59:07;;;;;;;0.10;0.10;;;17.90;72.60;;;;;;5017844;28;20066;-66
2021/06/07 06:01:34;;;;;;;0.05;0.03;;;18.00;72.70;;;;;;5014540;28;20130;-66
2021/06/07 06:04:02;;;;;;;0.50;0.15;;;18.00;72.50;;;;;;5024703;28;20041;-66
2021/06/07 06:06:28;;;;;;;0.10;0.10;;;18.10;72.50;;;;;;5036412;28;20515;-66
2021/06/07 06:08:54;;;;;;;0.10;0.10;;;18.10;72.40;;;;;;5038574;28;20037;-66
2021/06/07 06:11:21;;;;;;;0.10;0.10;;;18.10;72.40;;;;;;5038591;28;20065;-66
2021/06/07 06:13:49;;;;;;;0.20;0.10;;;18.10;72.40;;;;;;5034689;28;20034;-66
2021/06/07 06:16:21;;;;;;;0.20;0.20;;;18.20;72.40;;;;;;5035886;28;20049;-65
2021/06/07 06:18:48;;;;;;;0.20;0.20;;;18.20;72.30;;;;;;5038787;28;20068;-64
2021/06/07 06:21:15;;;;;;;0.10;0.10;;;18.20;72.30;;;;;;5036754;28;20128;-64
2021/06/07 06:23:41;;;;;;;0.03;0.03;;;18.30;72.30;;;;;;5013518;28;20386;-64
2021/06/07 06:26:09;;;;;;;0.00;0.00;;;18.40;73.20;;;;;;5036194;28;20120;-64
2021/06/07 06:28:39;;;;;;;0.10;0.10;;;18.40;72.10;;;;;;5036335;28;20049;-64
2021/06/07 06:31:06;;;;;;;0.08;0.08;;;18.50;72.00;;;;;;5030343;28;20041;-64
2021/06/07 06:33:33;;;;;;;0.10;0.10;;;18.60;71.80;;;;;;5034650;28;20084;-63
2021/06/07 06:36:00;;;;;;;0.00;0.00;;;18.70;71.70;;;;;;5036550;28;20140;-63
2021/06/07 06:38:26;;;;;;;0.10;0.10;;;18.80;71.50;;;;;;5034978;28;20053;-64
2021/06/07 06:40:53;;;;;;;0.10;0.10;;;18.80;71.40;;;;;;5043237;28;20115;-64
2021/06/07 06:43:21;;;;;;;0.10;0.10;;;18.90;71.20;;;;;;5043664;28;20049;-64
2021/06/07 06:45:49;;;;;;;0.10;0.10;;;19.00;71.00;;;;;;5045302;28;20136;-64
2021/06/07 06:48:16;;;;;;;0.10;0.10;;;19.00;70.80;;;;;;5049179;28;20128;-68
2021/06/07 06:50:42;;;;;;;0.05;0.05;;;19.10;70.80;;;;;;5042998;28;20527;-65
2021/06/07 06:53:16;;;;;;;0.20;0.20;;;19.20;70.80;;;;;;5054814;28;20508;-63
2021/06/07 06:55:46;;;;;;;0.20;0.10;;;19.20;70.30;;;;;;5054838;28;20052;-64
2021/06/07 06:58:12;;;;;;;0.10;0.10;;;19.30;69.50;;;;;;5051495;28;20060;-64
2021/06/07 07:00:40;;;;;;;0.10;0.10;;;19.30;69.40;;;;;;5035740;28;20114;-63
2021/06/07 07:03:13;;;;;;;0.10;0.10;;;19.20;68.80;;;;;;5034573;28;20054;-63
2021/06/07 07:05:40;;;;;;;0.10;0.10;;;19.20;68.90;;;;;;5038717;28;20559;-63
2021/06/07 07:08:07;;;;;;;0.10;0.10;;;19.20;69.10;;;;;;5035335;28;20046;-63
2021/06/07 07:10:35;;;;;;;0.20;0.20;;;19.20;69.20;;;;;;5035652;28;20081;-63
2021/06/07 07:13:02;;;;;;;0.10;0.10;;;19.20;69.30;;;;;;5035308;28;20191;-63
2021/06/07 07:15:28;;;;;;;0.20;0.20;;;19.20;69.30;;;;;;5036906;28;20050;-63
2021/06/07 07:17:55;;;;;;;0.10;0.10;;;19.30;70.40;;;;;;5040757;28;20042;-65
2021/06/07 07:20:21;;;;;;;0.08;0.08;;;19.40;69.30;;;;;;5034657;28;20120;-64
2021/06/07 07:22:48;;;;;;;0.20;0.10;;;19.40;69.30;;;;;;5041270;28;20049;-63
2021/06/07 07:25:15;;;;;;;0.10;0.10;;;19.50;69.40;;;;;;5033288;28;20492;-63
2021/06/07 07:27:42;;;;;;;0.08;0.08;;;19.60;69.30;;;;;;5035907;28;20049;-62
2021/06/07 07:30:12;;;;;;;0.10;0.10;;;19.60;69.10;;;;;;5034700;28;20045;-63
2021/06/07 07:32:43;;;;;;;0.10;0.10;;;19.70;69.00;;;;;;5035849;28;20491;-64
2021/06/07 07:35:10;;;;;;;0.08;0.08;;;19.70;68.70;;;;;;5036729;28;20053;-63
2021/06/07 07:37:37;;;;;;;0.10;0.10;;;19.80;68.60;;;;;;5036352;28;20428;-64
2021/06/07 07:40:08;;;;;;;0.00;0.00;;;19.90;69.40;;;;;;5033451;28;20045;-63
2021/06/07 07:42:35;;;;;;;0.20;0.10;;;19.90;68.00;;;;;;5041013;28;20049;-63
2021/06/07 07:45:08;;;;;;;0.10;0.10;;;20.00;67.90;;;;;;5050426;28;20535;-63
2021/06/07 07:47:35;;;;;;;0.15;0.15;;;20.10;67.90;;;;;;5044407;28;20699;-63
2021/06/07 07:50:10;;;;;;;0.10;0.10;;;20.20;67.90;;;;;;5033615;28;20496;-63
2021/06/07 07:52:41;;;;;;;0.10;0.10;;;20.30;67.70;;;;;;5052795;28;20124;-63
2021/06/07 07:55:10;;;;;;;0.10;0.10;;;20.50;67.20;;;;;;5052883;28;20041;-63
2021/06/07 07:57:38;;;;;;;0.20;0.20;;;20.60;66.60;;;;;;5052430;28;20049;-63
2021/06/07 08:00:13;;;;;;;0.10;0.10;;;20.70;66.20;;;;;;5052385;28;20132;-63
2021/06/07 08:02:39;;;;;;;0.20;0.20;;;20.80;65.80;;;;;;5052533;28;20091;-64
2021/06/07 08:05:08;;;;;;;0.20;0.20;;;20.90;65.50;;;;;;5052707;28;20055;-64
2021/06/07 08:07:35;;;;;;;0.10;0.10;;;21.00;65.40;;;;;;5052410;28;20053;-63
2021/06/07 08:10:01;;;;;;;0.10;0.10;;;21.10;64.80;;;;;;5035124;28;20203;-60
2021/06/07 08:12:28;;;;;;;0.10;0.10;;;21.20;63.60;;;;;;5043105;28;20037;-63
2021/06/07 08:14:54;;;;;;;0.32;0.15;;;21.20;62.90;;;;;;5036567;28;20045;-64
2021/06/07 08:17:21;;;;;;;0.10;0.10;;;21.30;63.20;;;;;;5040225;28;20056;-64
2021/06/07 08:19:47;;;;;;;0.08;0.08;;;21.30;63.20;;;;;;5049589;28;20642;-63
2021/06/07 08:22:14;;;;;;;0.10;0.10;;;21.50;63.10;;;;;;5047009;28;20448;-61
2021/06/07 08:24:40;;;;;;;0.10;0.10;;;21.50;62.60;;;;;;5043086;28;20126;-63
2021/06/07 08:27:07;;;;;;;0.10;0.10;;;21.60;62.70;;;;;;5050684;28;20092;-63
2021/06/07 08:29:33;;;;;;;0.20;0.10;;;21.70;62.70;;;;;;5040864;28;20046;-61
2021/06/07 08:31:59;;;;;;;0.10;0.10;;;21.90;62.50;;;;;;5011625;28;20064;-64
2021/06/07 08:34:26;;;;;;;0.13;0.10;;;22.00;62.20;;;;;;5032386;28;20041;-61
2021/06/07 08:36:52;;;;;;;0.20;0.20;;;22.20;62.00;;;;;;5033243;28;20049;-62
2021/06/07 08:39:19;;;;;;;0.10;0.10;;;22.30;61.60;;;;;;5030713;28;20110;-62
2021/06/07 08:41:46;;;;;;;0.10;0.10;;;22.40;60.10;;;;;;5027306;28;20053;-62
2021/06/07 08:44:12;;;;;;;0.15;0.15;;;22.40;60.30;;;;;;5037120;28;20508;-64
2021/06/07 08:46:39;;;;;;;0.00;0.00;;;22.60;60.80;;;;;;5040015;28;20487;-61
2021/06/07 08:49:05;;;;;;;0.00;0.00;;;22.70;60.50;;;;;;5036888;28;20088;-65
2021/06/07 08:51:32;;;;;;;0.10;0.08;;;22.90;59.50;;;;;;5046586;28;20408;-64
2021/06/07 08:54:00;;;;;;;0.10;0.10;;;23.00;59.20;;;;;;5039583;28;20041;-64
2021/06/07 08:56:26;;;;;;;0.10;0.10;;;23.20;58.50;;;;;;5051993;28;20099;-64
2021/06/07 08:58:52;;;;;;;0.10;0.10;;;23.30;57.40;;;;;;5051186;28;20111;-63
2021/06/07 09:01:19;;;;;;;1.02;0.10;;;23.30;55.80;;;;;;5051756;28;20083;-63
2021/06/07 09:03:45;;;;;;;3.50;1.30;;;23.30;56.20;;;;;;5051575;28;20051;-63
2021/06/07 09:06:13;;;;;;;0.40;0.17;;;23.40;56.40;;;;;;5051528;28;20056;-63
2021/06/07 09:08:40;;;;;;;0.10;0.10;;;23.40;55.90;;;;;;5050816;28;20504;-63
2021/06/07 09:11:11;;;;;;;0.10;0.10;;;23.40;56.20;;;;;;5033297;28;20127;-63
2021/06/07 09:13:38;;;;;;;0.00;0.00;;;23.40;56.40;;;;;;5051313;28;20118;-63
2021/06/07 09:16:05;;;;;;;0.10;0.10;;;23.40;56.60;;;;;;5051299;28;20206;-64
2021/06/07 09:18:44;;;;;;;0.15;0.15;;;23.30;56.60;;;;;;5051522;28;20048;-63
2021/06/07 09:21:14;;;;;;;0.20;0.13;;;23.30;56.70;;;;;;5026260;28;20057;-63
2021/06/07 09:23:46;;;;;;;0.00;0.00;;;23.30;57.30;;;;;;5050835;28;20128;-64
2021/06/07 09:26:25;;;;;;;0.57;0.20;;;23.40;57.20;;;;;;5043024;28;20463;-63
2021/06/07 09:28:54;;;;;;;0.10;0.10;;;23.50;57.10;;;;;;5012866;28;20085;-63
2021/06/07 09:31:33;;;;;;;0.10;0.10;;;23.70;56.90;;;;;;5022613;28;20107;-64
2021/06/07 09:34:04;;;;;;;0.10;0.10;;;23.90;57.10;;;;;;5017593;28;20042;-64
2021/06/07 09:36:32;;;;;;;0.00;0.00;;;23.90;55.40;;;;;;5018317;28;20124;-63
2021/06/07 09:39:01;;;;;;;0.10;0.10;;;23.90;52.90;;;;;;5029284;28;20053;-64
2021/06/07 09:41:42;;;;;;;0.07;0.07;;;23.90;53.10;;;;;;5038195;28;20053;-64
2021/06/07 09:44:08;;;;;;;0.03;0.03;;;24.00;52.80;;;;;;5043595;28;20102;-63
2021/06/07 09:46:35;;;;;;;0.10;0.10;;;24.10;52.90;;;;;;5018458;28;20057;-64
2021/06/07 09:49:12;;;;;;;0.10;0.10;;;24.10;51.90;;;;;;5031754;28;20107;-64
2021/06/07 09:51:41;;;;;;;0.10;0.10;;;24.00;51.60;;;;;;5043232;28;20088;-63
2021/06/07 09:54:13;;;;;;;0.10;0.10;;;24.00;52.20;;;;;;5037247;28;20090;-63
2021/06/07 09:57:01;;;;;;;0.10;0.10;;;24.10;52.50;;;;;;5039987;28;20416;-64
2021/06/07 09:59:34;;;;;;;0.10;0.10;;;24.30;52.60;;;;;;5023515;28;20049;-64
2021/06/07 10:02:13;;;;;;;0.20;0.20;;;24.40;51.90;;;;;;5026699;28;20179;-64
2021/06/07 10:04:50;;;;;;;0.10;0.10;;;24.50;51.60;;;;;;5040766;28;20056;-63
2021/06/07 10:07:18;;;;;;;0.20;0.20;;;24.60;51.00;;;;;;5022669;28;20049;-63
2021/06/07 10:10:07;;;;;;;0.10;0.10;;;24.60;51.30;;;;;;5029057;28;20143;-64
2021/06/07 10:12:34;;;;;;;0.13;0.10;;;24.70;50.90;;;;;;5032667;28;20052;-63
2021/06/07 10:15:01;;;;;;;0.17;0.15;;;24.60;50.70;;;;;;5028289;28;20176;-63
2021/06/07 10:17:28;;;;;;;0.10;0.10;;;24.60;50.20;;;;;;5020549;28;20037;-63
2021/06/07 10:22:34;;;;;;;0.20;0.13;;;24.80;49.90;;;;;;5017416;28;20576;-63
2021/06/07 10:25:00;;;;;;;0.13;0.13;;;25.00;49.90;;;;;;5021702;28;20406;-63
2021/06/07 10:27:27;;;;;;;0.00;0.00;;;25.20;50.10;;;;;;5031104;28;20062;-63
2021/06/07 10:29:53;;;;;;;0.10;0.10;;;25.30;50.30;;;;;;5029965;28;20110;-64
2021/06/07 10:32:25;;;;;;;0.35;0.20;;;25.40;49.70;;;;;;5030718;28;20176;-63
2021/06/07 10:34:54;;;;;;;0.10;0.10;;;25.50;49.70;;;;;;5031132;28;20559;-64
2021/06/07 10:37:21;;;;;;;0.10;0.10;;;25.70;50.00;;;;;;5015908;28;20520;-64
2021/06/07 10:39:49;;;;;;;0.15;0.10;;;25.70;49.70;;;;;;5016331;28;20497;-64
2021/06/07 10:42:17;;;;;;;0.05;0.05;;;25.90;48.90;;;;;;5013475;28;20160;-63
2021/06/07 10:44:53;;;;;;;0.30;0.10;;;25.90;48.30;;;;;;5026902;28;20052;-63
2021/06/07 10:47:26;;;;;;;0.10;0.10;;;25.90;47.10;;;;;;5037343;28;20041;-64
2021/06/07 10:50:14;;;;;;;0.22;0.13;;;25.80;46.70;;;;;;5029140;28;20053;-64
2021/06/07 10:52:50;;;;;;;0.05;0.05;;;25.60;46.70;;;;;;5050942;28;20045;-64
2021/06/07 10:55:22;;;;;;;0.17;0.10;;;25.40;47.50;;;;;;5050836;28;20044;-64
2021/06/07 10:57:55;;;;;;;0.22;0.10;;;25.40;48.60;;;;;;5051192;28;20172;-64
2021/06/07 11:00:26;;;;;;;0.10;0.10;;;25.40;49.20;;;;;;5041541;28;20139;-64
2021/06/07 11:03:00;;;;;;;0.10;0.10;;;25.40;48.50;;;;;;5051940;28;20503;-64
2021/06/07 11:05:32;;;;;;;0.03;0.00;;;25.30;48.40;;;;;;5054253;28;20052;-64
2021/06/07 11:08:06;;;;;;;0.63;0.17;;;25.30;48.50;;;;;;5046599;28;20057;-64
2021/06/07 11:10:40;;;;;;;0.00;0.00;;;25.20;48.20;;;;;;5027160;28;20049;-65
2021/06/07 11:13:12;;;;;;;0.13;0.10;;;25.00;48.20;;;;;;5015978;28;20042;-64
2021/06/07 11:15:53;;;;;;;0.10;0.10;;;24.90;48.60;;;;;;5015791;28;20132;-66
2021/06/07 11:18:35;;;;;;;0.10;0.00;;;24.70;49.00;;;;;;5014211;28;20042;-64
2021/06/07 11:21:21;;;;;;;0.20;0.10;;;24.60;50.10;;;;;;5033856;28;20048;-64
2021/06/07 11:23:47;;;;;;;0.10;0.10;;;24.50;49.60;;;;;;5001588;28;20042;-64
2021/06/07 11:26:21;;;;;;;0.10;0.10;;;24.50;50.00;;;;;;5016568;28;20455;-64
2021/06/07 11:29:14;;;;;;;0.00;0.00;;;24.50;50.50;;;;;;5017534;28;20050;-64
2021/06/07 11:31:51;;;;;;;0.17;0.15;;;24.60;50.80;;;;;;5015504;28;20057;-63
2021/06/07 11:34:39;;;;;;;0.38;0.10;;;24.60;49.50;;;;;;5023009;28;20496;-63
2021/06/07 11:37:07;;;;;;;0.10;0.10;;;24.60;49.40;;;;;;5022974;28;20405;-63
2021/06/07 11:39:42;;;;;;;0.10;0.10;;;24.60;49.40;;;;;;5030566;28;20137;-64
2021/06/07 11:42:12;;;;;;;0.10;0.10;;;24.50;49.00;;;;;;5026017;28;20064;-62
2021/06/07 11:44:53;;;;;;;0.00;0.00;;;24.40;49.10;;;;;;5023793;28;20127;-63
2021/06/07 11:47:26;;;;;;;0.10;0.10;;;24.30;49.20;;;;;;5036977;28;20519;-63
2021/06/07 11:49:56;;;;;;;0.10;0.10;;;24.30;49.30;;;;;;5018415;28;20168;-62
2021/06/07 11:52:32;;;;;;;0.00;0.00;;;24.30;49.50;;;;;;5035877;28;20065;-63
2021/06/07 11:55:16;;;;;;;0.00;0.00;;;24.20;49.20;;;;;;5013188;28;20398;-62
2021/06/07 11:57:43;;;;;;;0.10;0.10;;;24.20;49.30;;;;;;5034734;28;20056;-62
2021/06/07 12:00:10;;;;;;;0.05;0.05;;;24.20;49.80;;;;;;5035055;28;20068;-62
2021/06/07 12:02:36;;;;;;;0.00;0.00;;;24.30;50.30;;;;;;5032722;28;20049;-62
2021/06/07 12:05:14;;;;;;;0.05;0.05;;;24.30;50.00;;;;;;5019760;28;20061;-62
2021/06/07 12:07:44;;;;;;;0.05;0.05;;;24.40;50.50;;;;;;5034843;28;20065;-62
2021/06/07 12:10:14;;;;;;;;;;;24.50;50.30;;;;;;5032096;28;20076;-63
2021/06/07 12:12:42;;;;;;;0.10;0.10;;;24.70;49.50;;;;;;5037634;28;19929;-64
2021/06/07 12:15:14;;;;;;;0.00;0.00;;;24.80;49.50;;;;;;5037518;28;20046;-64
2021/06/07 12:17:47;;;;;;;0.00;0.00;;;24.80;48.90;;;;;;5035744;28;20138;-63
2021/06/07 12:20:18;;;;;;;0.00;0.00;;;24.90;48.00;;;;;;5042859;28;20053;-63
2021/06/07 12:22:48;;;;;;;0.60;0.17;;;25.00;48.00;;;;;;5029047;28;20049;-62
2021/06/07 12:30:40;;;;;;;0.10;0.10;;;25.20;46.00;;;;;;5044266;28;20129;-64
2021/06/07 12:33:07;;;;;;;0.10;0.03;;;25.20;46.30;;;;;;5043477;28;20045;-64
2021/06/07 12:35:36;;;;;;;0.85;0.10;;;25.30;46.30;;;;;;5043806;28;20626;-64
2021/06/07 12:38:05;;;;;;;0.03;0.03;;;25.30;45.80;;;;;;5047931;28;20045;-64
2021/06/07 12:40:47;;;;;;;0.00;0.00;;;25.40;45.70;;;;;;5045380;28;20071;-64
2021/06/07 12:43:17;;;;;;;0.00;0.00;;;25.40;45.30;;;;;;5024087;28;20061;-64
2021/06/07 12:45:57;;;;;;;0.15;0.10;;;25.40;45.20;;;;;;5038928;28;20054;-64
2021/06/07 12:48:26;;;;;;;0.00;0.00;;;25.40;45.00;;;;;;5031827;28;20045;-63
2021/06/07 12:51:01;;;;;;;0.00;0.00;;;25.40;46.30;;;;;;5041655;28;20049;-63
2021/06/07 12:53:34;;;;;;;0.00;0.00;;;25.30;44.60;;;;;;5051377;28;20041;-64
2021/06/07 12:56:03;;;;;;;0.00;0.00;;;25.30;44.20;;;;;;5031735;28;20037;-63
2021/06/07 12:58:31;;;;;;;0.10;0.10;;;25.20;44.50;;;;;;5030649;28;20058;-63
2021/06/07 13:01:02;;;;;;;0.00;0.00;;;25.10;44.60;;;;;;5031320;28;20449;-63
2021/06/07 13:03:31;;;;;;;0.63;0.05;;;25.00;45.10;;;;;;5031594;28;20057;-64
2021/06/07 13:06:11;;;;;;;0.00;0.00;;;24.90;44.60;;;;;;5031593;28;20072;-64
2021/06/07 13:09:02;;;;;;;0.00;0.00;;;24.80;44.70;;;;;;5031225;28;20075;-63